sensor_id;sensor_type;location;lat;lon;timestamp;temperature;humidity
13409;DHT22;6775;49.574;11.170;2024-01-30T00:01:32;0.50;99.90
13409;DHT22;6775;49.574;11.170;2024-01-30T00:04:00;0.60;99.90
13409;DHT22;6775;49.574;11.170;2024-01-30T00:06:31;0.40;99.90
13409;DHT22;6775;49.574;11.170;2024-01-30T00:08:59;0.50;99.90
13409;DHT22;6775;49.574;11.170;2024-01-30T00:11:27;0.70;99.90
13409;DHT22;6775;49.574;11.170;2024-01-30T00:13:55;0.50;99.90
13409;DHT22;6775;49.574;11.170;2024-01-30T00:16:24;0.60;99.90
13409;DHT22;6775;49.574;11.170;2024-01-30T00:18:53;0.60;99.90
13409;DHT22;6775;49.574;11.170;2024-01-30T00:21:22;0.90;99.90
13409;DHT22;6775;49.574;11.170;2024-01-30T00:23:52;0.70;99.90
13409;DHT22;6775;49.574;11.170;2024-01-30T00:26:20;0.80;99.90
13409;DHT22;6775;49.574;11.170;2024-01-30T00:28:48;0.80;99.90
13409;DHT22;6775;49.574;11.170;2024-01-30T00:31:16;0.90;99.90
13409;DHT22;6775;49.574;11.170;2024-01-30T00:33:45;1.10;99.90
13409;DHT22;6775;49.574;11.170;2024-01-30T00:36:13;0.90;99.90
13409;DHT22;6775;49.574;11.170;2024-01-30T00:38:41;1.00;99.90
13409;DHT22;6775;49.574;11.170;2024-01-30T00:41:11;1.00;99.90
13409;DHT22;6775;49.574;11.170;2024-01-30T00:43:39;1.00;99.90
13409;DHT22;6775;49.574;11.170;2024-01-30T00:46:07;1.30;99.90
13409;DHT22;6775;49.574;11.170;2024-01-30T00:48:35;1.10;99.90
13409;DHT22;6775;49.574;11.170;2024-01-30T00:51:04;1.20;99.90
13409;DHT22;6775;49.574;11.170;2024-01-30T00:53:32;1.20;99.90
13409;DHT22;6775;49.574;11.170;2024-01-30T00:56:00;1.20;99.90
13409;DHT22;6775;49.574;11.170;2024-01-30T00:58:30;1.30;99.90
13409;DHT22;6775;49.574;11.170;2024-01-30T01:00:58;1.20;99.90
13409;DHT22;6775;49.574;11.170;2024-01-30T01:03:26;1.30;99.90
13409;DHT22;6775;49.574;11.170;2024-01-30T01:05:54;1.30;99.90
13409;DHT22;6775;49.574;11.170;2024-01-30T01:08:22;1.30;99.90
13409;DHT22;6775;49.574;11.170;2024-01-30T01:10:51;1.30;99.90
13409;DHT22;6775;49.574;11.170;2024-01-30T01:13:20;1.30;99.90
13409;DHT22;6775;49.574;11.170;2024-01-30T01:15:50;1.30;99.90
13409;DHT22;6775;49.574;11.170;2024-01-30T01:18:18;1.30;99.90
13409;DHT22;6775;49.574;11.170;2024-01-30T01:20:46;1.30;99.90
13409;DHT22;6775;49.574;11.170;2024-01-30T01:23:14;1.30;99.90
13409;DHT22;6775;49.574;11.170;2024-01-30T01:25:43;1.30;99.90
13409;DHT22;6775;49.574;11.170;2024-01-30T01:28:11;1.30;99.90
13409;DHT22;6775;49.574;11.170;2024-01-30T01:30:39;1.30;99.90
13409;DHT22;6775;49.574;11.170;2024-01-30T01:33:09;1.30;99.90
13409;DHT22;6775;49.574;11.170;2024-01-30T01:35:37;1.40;99.90
13409;DHT22;6775;49.574;11.170;2024-01-30T01:38:06;1.40;99.90
13409;DHT22;6775;49.574;11.170;2024-01-30T01:40:34;1.50;99.90
13409;DHT22;6775;49.574;11.170;2024-01-30T01:43:03;1.50;99.90
13409;DHT22;6775;49.574;11.170;2024-01-30T01:45:32;1.60;99.90
13409;DHT22;6775;49.574;11.170;2024-01-30T01:48:00;1.60;99.90
13409;DHT22;6775;49.574;11.170;2024-01-30T01:50:30;1.70;99.90
13409;DHT22;6775;49.574;11.170;2024-01-30T01:52:59;1.80;99.90
13409;DHT22;6775;49.574;11.170;2024-01-30T01:55:29;1.90;99.90
13409;DHT22;6775;49.574;11.170;2024-01-30T01:57:59;1.90;99.90
13409;DHT22;6775;49.574;11.170;2024-01-30T02:00:27;2.00;99.90
13409;DHT22;6775;49.574;11.170;2024-01-30T02:02:56;2.00;99.90
13409;DHT22;6775;49.574;11.170;2024-01-30T02:05:25;2.00;99.90
13409;DHT22;6775;49.574;11.170;2024-01-30T02:07:56;2.10;99.90
13409;DHT22;6775;49.574;11.170;2024-01-30T02:10:24;2.00;99.90
13409;DHT22;6775;49.574;11.170;2024-01-30T02:12:52;2.10;99.90
13409;DHT22;6775;49.574;11.170;2024-01-30T02:15:21;2.10;99.90
13409;DHT22;6775;49.574;11.170;2024-01-30T02:17:49;2.10;99.90
13409;DHT22;6775;49.574;11.170;2024-01-30T02:20:17;2.10;99.90
13409;DHT22;6775;49.574;11.170;2024-01-30T02:22:48;2.10;99.90
13409;DHT22;6775;49.574;11.170;2024-01-30T02:25:16;2.00;99.90
13409;DHT22;6775;49.574;11.170;2024-01-30T02:27:45;1.90;99.90
13409;DHT22;6775;49.574;11.170;2024-01-30T02:30:13;1.80;99.90
13409;DHT22;6775;49.574;11.170;2024-01-30T02:32:41;1.80;99.90
13409;DHT22;6775;49.574;11.170;2024-01-30T02:35:10;1.70;99.90
13409;DHT22;6775;49.574;11.170;2024-01-30T02:37:38;1.70;99.90
13409;DHT22;6775;49.574;11.170;2024-01-30T02:40:08;1.70;99.90
13409;DHT22;6775;49.574;11.170;2024-01-30T02:42:36;1.70;99.90
13409;DHT22;6775;49.574;11.170;2024-01-30T02:45:05;1.60;99.90
13409;DHT22;6775;49.574;11.170;2024-01-30T02:47:34;1.60;99.90
13409;DHT22;6775;49.574;11.170;2024-01-30T02:50:04;1.60;99.90
13409;DHT22;6775;49.574;11.170;2024-01-30T02:52:33;1.60;99.90
13409;DHT22;6775;49.574;11.170;2024-01-30T02:55:01;1.50;99.90
13409;DHT22;6775;49.574;11.170;2024-01-30T02:57:31;1.50;99.90
13409;DHT22;6775;49.574;11.170;2024-01-30T03:00:01;1.60;99.90
13409;DHT22;6775;49.574;11.170;2024-01-30T03:02:30;1.50;99.90
13409;DHT22;6775;49.574;11.170;2024-01-30T03:04:59;1.40;99.90
13409;DHT22;6775;49.574;11.170;2024-01-30T03:07:27;1.30;99.90
13409;DHT22;6775;49.574;11.170;2024-01-30T03:09:56;1.40;99.90
13409;DHT22;6775;49.574;11.170;2024-01-30T03:12:24;1.30;99.90
13409;DHT22;6775;49.574;11.170;2024-01-30T03:14:53;1.20;99.90
13409;DHT22;6775;49.574;11.170;2024-01-30T03:17:21;1.20;99.90
13409;DHT22;6775;49.574;11.170;2024-01-30T03:19:51;1.20;99.90
13409;DHT22;6775;49.574;11.170;2024-01-30T03:22:19;1.20;99.90
13409;DHT22;6775;49.574;11.170;2024-01-30T03:24:47;1.20;99.90
13409;DHT22;6775;49.574;11.170;2024-01-30T03:27:15;1.20;99.90
13409;DHT22;6775;49.574;11.170;2024-01-30T03:29:44;1.20;99.90
13409;DHT22;6775;49.574;11.170;2024-01-30T03:32:13;1.10;99.90
13409;DHT22;6775;49.574;11.170;2024-01-30T03:34:41;1.00;99.90
13409;DHT22;6775;49.574;11.170;2024-01-30T03:37:10;1.00;99.90
13409;DHT22;6775;49.574;11.170;2024-01-30T03:39:38;1.10;99.90
13409;DHT22;6775;49.574;11.170;2024-01-30T03:42:06;1.10;99.90
13409;DHT22;6775;49.574;11.170;2024-01-30T03:44:34;1.20;99.90
13409;DHT22;6775;49.574;11.170;2024-01-30T03:47:03;1.20;99.90
13409;DHT22;6775;49.574;11.170;2024-01-30T03:49:32;1.30;99.90
13409;DHT22;6775;49.574;11.170;2024-01-30T03:52:00;1.30;99.90
13409;DHT22;6775;49.574;11.170;2024-01-30T03:54:29;1.30;99.90
13409;DHT22;6775;49.574;11.170;2024-01-30T03:56:57;1.40;99.90
13409;DHT22;6775;49.574;11.170;2024-01-30T03:59:25;1.40;99.90
13409;DHT22;6775;49.574;11.170;2024-01-30T04:01:54;1.30;99.90
13409;DHT22;6775;49.574;11.170;2024-01-30T04:04:22;1.30;99.90
13409;DHT22;6775;49.574;11.170;2024-01-30T04:06:52;1.30;99.90
13409;DHT22;6775;49.574;11.170;2024-01-30T04:09:20;1.30;99.90
13409;DHT22;6775;49.574;11.170;2024-01-30T04:11:48;1.20;99.90
13409;DHT22;6775;49.574;11.170;2024-01-30T04:14:16;1.20;99.90
13409;DHT22;6775;49.574;11.170;2024-01-30T04:16:47;1.10;99.90
13409;DHT22;6775;49.574;11.170;2024-01-30T04:19:15;1.20;99.90
13409;DHT22;6775;49.574;11.170;2024-01-30T04:21:43;1.20;99.90
13409;DHT22;6775;49.574;11.170;2024-01-30T04:24:12;1.20;99.90
13409;DHT22;6775;49.574;11.170;2024-01-30T04:26:43;1.20;99.90
13409;DHT22;6775;49.574;11.170;2024-01-30T04:29:12;1.10;99.90
13409;DHT22;6775;49.574;11.170;2024-01-30T04:31:40;1.00;99.90
13409;DHT22;6775;49.574;11.170;2024-01-30T04:34:08;1.00;99.90
13409;DHT22;6775;49.574;11.170;2024-01-30T04:36:36;1.00;99.90
13409;DHT22;6775;49.574;11.170;2024-01-30T04:39:04;1.00;99.90
13409;DHT22;6775;49.574;11.170;2024-01-30T04:41:34;1.00;99.90
13409;DHT22;6775;49.574;11.170;2024-01-30T04:44:02;1.00;99.90
13409;DHT22;6775;49.574;11.170;2024-01-30T04:46:30;0.90;99.90
13409;DHT22;6775;49.574;11.170;2024-01-30T04:49:00;1.10;99.90
13409;DHT22;6775;49.574;11.170;2024-01-30T04:51:30;1.00;99.90
13409;DHT22;6775;49.574;11.170;2024-01-30T04:53:58;1.00;99.90
13409;DHT22;6775;49.574;11.170;2024-01-30T04:56:26;1.00;99.90
13409;DHT22;6775;49.574;11.170;2024-01-30T04:58:56;0.90;99.90
13409;DHT22;6775;49.574;11.170;2024-01-30T05:01:24;0.90;99.90
13409;DHT22;6775;49.574;11.170;2024-01-30T05:03:52;0.90;99.90
13409;DHT22;6775;49.574;11.170;2024-01-30T05:06:26;0.90;99.90
13409;DHT22;6775;49.574;11.170;2024-01-30T05:08:55;0.80;99.90
13409;DHT22;6775;49.574;11.170;2024-01-30T05:11:23;0.70;99.90
13409;DHT22;6775;49.574;11.170;2024-01-30T05:13:51;0.60;99.90
13409;DHT22;6775;49.574;11.170;2024-01-30T05:16:20;0.60;99.90
13409;DHT22;6775;49.574;11.170;2024-01-30T05:18:49;0.60;99.90
13409;DHT22;6775;49.574;11.170;2024-01-30T05:21:17;0.60;99.90
13409;DHT22;6775;49.574;11.170;2024-01-30T05:23:45;0.50;99.90
13409;DHT22;6775;49.574;11.170;2024-01-30T05:26:13;0.50;99.90
13409;DHT22;6775;49.574;11.170;2024-01-30T05:28:42;0.50;99.90
13409;DHT22;6775;49.574;11.170;2024-01-30T05:31:11;0.50;99.90
13409;DHT22;6775;49.574;11.170;2024-01-30T05:33:40;0.40;99.90
13409;DHT22;6775;49.574;11.170;2024-01-30T05:36:11;0.40;99.90
13409;DHT22;6775;49.574;11.170;2024-01-30T05:38:40;0.40;99.90
13409;DHT22;6775;49.574;11.170;2024-01-30T05:41:08;0.50;99.90
13409;DHT22;6775;49.574;11.170;2024-01-30T05:43:37;0.40;99.90
13409;DHT22;6775;49.574;11.170;2024-01-30T05:46:05;0.40;99.90
13409;DHT22;6775;49.574;11.170;2024-01-30T05:48:34;0.70;99.90
13409;DHT22;6775;49.574;11.170;2024-01-30T05:51:04;0.40;99.90
13409;DHT22;6775;49.574;11.170;2024-01-30T05:53:33;0.40;99.90
13409;DHT22;6775;49.574;11.170;2024-01-30T05:56:02;0.40;99.90
13409;DHT22;6775;49.574;11.170;2024-01-30T05:58:30;0.40;99.90
13409;DHT22;6775;49.574;11.170;2024-01-30T06:00:58;0.50;99.90
13409;DHT22;6775;49.574;11.170;2024-01-30T06:03:27;0.50;99.90
13409;DHT22;6775;49.574;11.170;2024-01-30T06:05:55;0.50;99.90
13409;DHT22;6775;49.574;11.170;2024-01-30T06:08:24;0.50;99.90
13409;DHT22;6775;49.574;11.170;2024-01-30T06:10:52;0.50;99.90
13409;DHT22;6775;49.574;11.170;2024-01-30T06:13:20;0.50;99.90
13409;DHT22;6775;49.574;11.170;2024-01-30T06:15:49;0.70;99.90
13409;DHT22;6775;49.574;11.170;2024-01-30T06:18:17;0.50;99.90
13409;DHT22;6775;49.574;11.170;2024-01-30T06:20:45;0.60;99.90
13409;DHT22;6775;49.574;11.170;2024-01-30T06:23:13;0.60;99.90
13409;DHT22;6775;49.574;11.170;2024-01-30T06:25:43;0.50;99.90
13409;DHT22;6775;49.574;11.170;2024-01-30T06:28:11;0.50;99.90
13409;DHT22;6775;49.574;11.170;2024-01-30T06:30:39;0.80;99.90
13409;DHT22;6775;49.574;11.170;2024-01-30T06:33:07;0.60;99.90
13409;DHT22;6775;49.574;11.170;2024-01-30T06:35:35;0.60;99.90
13409;DHT22;6775;49.574;11.170;2024-01-30T06:38:10;0.70;99.90
13409;DHT22;6775;49.574;11.170;2024-01-30T06:40:40;0.80;99.90
13409;DHT22;6775;49.574;11.170;2024-01-30T06:43:09;0.70;99.90
13409;DHT22;6775;49.574;11.170;2024-01-30T06:45:38;0.70;99.90
13409;DHT22;6775;49.574;11.170;2024-01-30T06:48:07;1.00;99.90
13409;DHT22;6775;49.574;11.170;2024-01-30T06:50:35;0.80;99.90
13409;DHT22;6775;49.574;11.170;2024-01-30T06:53:04;0.80;99.90
13409;DHT22;6775;49.574;11.170;2024-01-30T06:55:32;0.90;99.90
13409;DHT22;6775;49.574;11.170;2024-01-30T06:58:00;0.90;99.90
13409;DHT22;6775;49.574;11.170;2024-01-30T07:00:30;1.20;99.90
13409;DHT22;6775;49.574;11.170;2024-01-30T07:02:58;0.90;99.90
13409;DHT22;6775;49.574;11.170;2024-01-30T07:05:26;0.90;99.90
13409;DHT22;6775;49.574;11.170;2024-01-30T07:07:54;0.90;99.90
13409;DHT22;6775;49.574;11.170;2024-01-30T07:10:23;1.10;99.90
13409;DHT22;6775;49.574;11.170;2024-01-30T07:12:51;1.20;99.90
13409;DHT22;6775;49.574;11.170;2024-01-30T07:15:20;1.50;99.90
13409;DHT22;6775;49.574;11.170;2024-01-30T07:17:49;2.00;99.90
13409;DHT22;6775;49.574;11.170;2024-01-30T07:20:17;2.50;99.90
13409;DHT22;6775;49.574;11.170;2024-01-30T07:22:47;2.90;99.90
13409;DHT22;6775;49.574;11.170;2024-01-30T07:25:15;3.30;99.90
13409;DHT22;6775;49.574;11.170;2024-01-30T07:27:44;3.50;99.90
13409;DHT22;6775;49.574;11.170;2024-01-30T07:30:12;3.40;99.90
13409;DHT22;6775;49.574;11.170;2024-01-30T07:32:42;3.20;99.90
13409;DHT22;6775;49.574;11.170;2024-01-30T07:35:11;2.90;99.90
13409;DHT22;6775;49.574;11.170;2024-01-30T07:37:40;2.70;99.90
13409;DHT22;6775;49.574;11.170;2024-01-30T07:40:08;2.60;99.90
13409;DHT22;6775;49.574;11.170;2024-01-30T07:42:37;2.40;99.90
13409;DHT22;6775;49.574;11.170;2024-01-30T07:45:06;2.40;99.90
13409;DHT22;6775;49.574;11.170;2024-01-30T07:47:34;2.40;99.90
13409;DHT22;6775;49.574;11.170;2024-01-30T07:50:03;2.30;99.90
13409;DHT22;6775;49.574;11.170;2024-01-30T07:52:33;2.20;99.90
13409;DHT22;6775;49.574;11.170;2024-01-30T07:55:01;2.30;99.90
13409;DHT22;6775;49.574;11.170;2024-01-30T07:57:30;2.30;99.90
13409;DHT22;6775;49.574;11.170;2024-01-30T07:59:59;2.50;99.90
13409;DHT22;6775;49.574;11.170;2024-01-30T08:02:27;2.50;99.90
13409;DHT22;6775;49.574;11.170;2024-01-30T08:04:55;2.50;99.90
13409;DHT22;6775;49.574;11.170;2024-01-30T08:07:23;2.50;99.90
13409;DHT22;6775;49.574;11.170;2024-01-30T08:09:53;2.60;99.90
13409;DHT22;6775;49.574;11.170;2024-01-30T08:12:21;2.60;99.90
13409;DHT22;6775;49.574;11.170;2024-01-30T08:14:49;2.70;99.90
13409;DHT22;6775;49.574;11.170;2024-01-30T08:17:17;2.70;99.90
13409;DHT22;6775;49.574;11.170;2024-01-30T08:19:45;2.80;99.90
13409;DHT22;6775;49.574;11.170;2024-01-30T08:22:14;2.90;99.90
13409;DHT22;6775;49.574;11.170;2024-01-30T08:24:42;3.10;99.90
13409;DHT22;6775;49.574;11.170;2024-01-30T08:27:11;3.60;99.90
13409;DHT22;6775;49.574;11.170;2024-01-30T08:29:39;4.30;99.90
13409;DHT22;6775;49.574;11.170;2024-01-30T08:32:08;4.80;99.90
13409;DHT22;6775;49.574;11.170;2024-01-30T08:34:36;5.20;99.90
13409;DHT22;6775;49.574;11.170;2024-01-30T08:37:04;6.00;99.90
13409;DHT22;6775;49.574;11.170;2024-01-30T08:39:32;7.20;99.90
13409;DHT22;6775;49.574;11.170;2024-01-30T08:42:01;7.50;99.90
13409;DHT22;6775;49.574;11.170;2024-01-30T08:44:30;7.30;99.90
13409;DHT22;6775;49.574;11.170;2024-01-30T08:46:58;6.80;99.90
13409;DHT22;6775;49.574;11.170;2024-01-30T08:49:27;6.40;99.90
13409;DHT22;6775;49.574;11.170;2024-01-30T08:51:55;5.80;99.90
13409;DHT22;6775;49.574;11.170;2024-01-30T08:54:24;5.20;99.90
13409;DHT22;6775;49.574;11.170;2024-01-30T08:56:53;4.70;99.90
13409;DHT22;6775;49.574;11.170;2024-01-30T08:59:22;4.40;99.90
13409;DHT22;6775;49.574;11.170;2024-01-30T09:01:52;4.20;99.90
13409;DHT22;6775;49.574;11.170;2024-01-30T09:04:37;4.00;99.90
13409;DHT22;6775;49.574;11.170;2024-01-30T09:07:06;3.90;99.90
13409;DHT22;6775;49.574;11.170;2024-01-30T09:09:37;3.80;99.90
13409;DHT22;6775;49.574;11.170;2024-01-30T09:12:07;3.80;99.90
13409;DHT22;6775;49.574;11.170;2024-01-30T09:14:37;3.80;99.90
13409;DHT22;6775;49.574;11.170;2024-01-30T09:17:09;3.70;99.90
13409;DHT22;6775;49.574;11.170;2024-01-30T09:19:37;3.70;99.90
13409;DHT22;6775;49.574;11.170;2024-01-30T09:22:06;3.80;99.90
13409;DHT22;6775;49.574;11.170;2024-01-30T09:24:34;3.80;99.90
13409;DHT22;6775;49.574;11.170;2024-01-30T09:27:03;3.90;99.90
13409;DHT22;6775;49.574;11.170;2024-01-30T09:29:31;4.00;99.90
13409;DHT22;6775;49.574;11.170;2024-01-30T09:32:00;4.10;99.90
13409;DHT22;6775;49.574;11.170;2024-01-30T09:34:30;4.20;99.90
13409;DHT22;6775;49.574;11.170;2024-01-30T09:36:59;4.30;99.90
13409;DHT22;6775;49.574;11.170;2024-01-30T09:39:27;4.40;99.90
13409;DHT22;6775;49.574;11.170;2024-01-30T09:42:01;4.50;99.90
13409;DHT22;6775;49.574;11.170;2024-01-30T09:44:34;4.60;99.90
13409;DHT22;6775;49.574;11.170;2024-01-30T09:47:04;4.60;99.90
13409;DHT22;6775;49.574;11.170;2024-01-30T09:49:34;4.70;99.90
13409;DHT22;6775;49.574;11.170;2024-01-30T09:52:04;4.80;99.90
13409;DHT22;6775;49.574;11.170;2024-01-30T09:54:34;4.90;99.90
13409;DHT22;6775;49.574;11.170;2024-01-30T09:57:03;5.10;99.90
13409;DHT22;6775;49.574;11.170;2024-01-30T09:59:32;5.20;99.90
13409;DHT22;6775;49.574;11.170;2024-01-30T10:02:00;5.40;99.90
13409;DHT22;6775;49.574;11.170;2024-01-30T10:04:31;5.50;99.90
13409;DHT22;6775;49.574;11.170;2024-01-30T10:07:01;5.70;99.90
13409;DHT22;6775;49.574;11.170;2024-01-30T10:09:32;6.00;99.90
13409;DHT22;6775;49.574;11.170;2024-01-30T10:12:02;6.50;99.90
13409;DHT22;6775;49.574;11.170;2024-01-30T10:14:31;7.00;99.90
13409;DHT22;6775;49.574;11.170;2024-01-30T10:17:01;7.90;99.90
13409;DHT22;6775;49.574;11.170;2024-01-30T10:19:41;9.00;99.90
13409;DHT22;6775;49.574;11.170;2024-01-30T10:22:11;10.10;99.90
13409;DHT22;6775;49.574;11.170;2024-01-30T10:24:39;10.10;99.90
13409;DHT22;6775;49.574;11.170;2024-01-30T10:27:07;9.60;99.90
13409;DHT22;6775;49.574;11.170;2024-01-30T10:29:37;9.10;99.90
13409;DHT22;6775;49.574;11.170;2024-01-30T10:32:05;8.50;99.90
13409;DHT22;6775;49.574;11.170;2024-01-30T10:34:34;7.90;99.90
13409;DHT22;6775;49.574;11.170;2024-01-30T10:37:07;7.50;99.90
13409;DHT22;6775;49.574;11.170;2024-01-30T10:39:42;7.10;99.90
13409;DHT22;6775;49.574;11.170;2024-01-30T10:42:12;6.80;99.90
13409;DHT22;6775;49.574;11.170;2024-01-30T10:44:48;6.70;99.90
13409;DHT22;6775;49.574;11.170;2024-01-30T10:47:26;6.60;99.90
13409;DHT22;6775;49.574;11.170;2024-01-30T10:49:56;6.60;99.90
13409;DHT22;6775;49.574;11.170;2024-01-30T10:52:26;6.80;99.90
13409;DHT22;6775;49.574;11.170;2024-01-30T10:54:58;6.80;99.90
13409;DHT22;6775;49.574;11.170;2024-01-30T10:57:27;6.80;99.90
13409;DHT22;6775;49.574;11.170;2024-01-30T10:59:57;6.90;99.90
13409;DHT22;6775;49.574;11.170;2024-01-30T11:02:28;7.00;99.90
13409;DHT22;6775;49.574;11.170;2024-01-30T11:04:58;7.10;99.90
13409;DHT22;6775;49.574;11.170;2024-01-30T11:07:28;7.20;99.90
13409;DHT22;6775;49.574;11.170;2024-01-30T11:10:03;7.20;99.90
13409;DHT22;6775;49.574;11.170;2024-01-30T11:12:33;7.40;99.90
13409;DHT22;6775;49.574;11.170;2024-01-30T11:15:08;7.40;99.90
13409;DHT22;6775;49.574;11.170;2024-01-30T11:17:45;7.40;99.90
13409;DHT22;6775;49.574;11.170;2024-01-30T11:20:20;7.50;99.90
13409;DHT22;6775;49.574;11.170;2024-01-30T11:22:51;7.60;99.90
13409;DHT22;6775;49.574;11.170;2024-01-30T11:25:22;7.60;99.90
13409;DHT22;6775;49.574;11.170;2024-01-30T11:27:52;7.50;99.90
13409;DHT22;6775;49.574;11.170;2024-01-30T11:30:22;7.50;99.90
13409;DHT22;6775;49.574;11.170;2024-01-30T11:32:59;7.50;99.90
13409;DHT22;6775;49.574;11.170;2024-01-30T11:35:30;7.60;99.90
13409;DHT22;6775;49.574;11.170;2024-01-30T11:38:00;7.70;99.90
13409;DHT22;6775;49.574;11.170;2024-01-30T11:40:31;7.80;99.90
13409;DHT22;6775;49.574;11.170;2024-01-30T11:43:03;7.90;99.90
13409;DHT22;6775;49.574;11.170;2024-01-30T11:45:33;8.00;99.90
13409;DHT22;6775;49.574;11.170;2024-01-30T11:48:02;8.10;99.90
13409;DHT22;6775;49.574;11.170;2024-01-30T11:50:32;8.40;99.90
13409;DHT22;6775;49.574;11.170;2024-01-30T11:53:02;8.60;99.90
13409;DHT22;6775;49.574;11.170;2024-01-30T11:55:32;8.70;99.90
13409;DHT22;6775;49.574;11.170;2024-01-30T11:58:02;8.80;99.90
13409;DHT22;6775;49.574;11.170;2024-01-30T12:00:32;8.80;99.90
13409;DHT22;6775;49.574;11.170;2024-01-30T12:03:02;8.80;99.90
13409;DHT22;6775;49.574;11.170;2024-01-30T12:05:33;8.70;99.90
13409;DHT22;6775;49.574;11.170;2024-01-30T12:08:01;8.70;99.90
13409;DHT22;6775;49.574;11.170;2024-01-30T12:10:30;8.60;99.90
13409;DHT22;6775;49.574;11.170;2024-01-30T12:13:01;8.40;99.90
13409;DHT22;6775;49.574;11.170;2024-01-30T12:15:30;8.50;99.90
13409;DHT22;6775;49.574;11.170;2024-01-30T12:18:05;8.40;99.90
13409;DHT22;6775;49.574;11.170;2024-01-30T12:20:34;8.40;99.90
13409;DHT22;6775;49.574;11.170;2024-01-30T12:23:03;8.50;99.90
13409;DHT22;6775;49.574;11.170;2024-01-30T12:25:33;8.60;99.90
13409;DHT22;6775;49.574;11.170;2024-01-30T12:28:01;8.60;99.90
13409;DHT22;6775;49.574;11.170;2024-01-30T12:30:30;8.70;99.90
13409;DHT22;6775;49.574;11.170;2024-01-30T12:32:58;8.80;99.90
13409;DHT22;6775;49.574;11.170;2024-01-30T12:35:28;9.10;99.90
13409;DHT22;6775;49.574;11.170;2024-01-30T12:37:59;9.10;99.90
13409;DHT22;6775;49.574;11.170;2024-01-30T12:40:28;9.10;99.90
13409;DHT22;6775;49.574;11.170;2024-01-30T12:42:57;9.50;99.90
13409;DHT22;6775;49.574;11.170;2024-01-30T12:45:26;9.30;99.90
13409;DHT22;6775;49.574;11.170;2024-01-30T12:47:54;9.60;99.90
13409;DHT22;6775;49.574;11.170;2024-01-30T12:50:22;9.90;99.90
13409;DHT22;6775;49.574;11.170;2024-01-30T12:52:51;9.90;99.90
13409;DHT22;6775;49.574;11.170;2024-01-30T12:55:19;9.90;99.90
13409;DHT22;6775;49.574;11.170;2024-01-30T12:57:47;9.70;99.90
13409;DHT22;6775;49.574;11.170;2024-01-30T13:00:17;9.60;99.90
13409;DHT22;6775;49.574;11.170;2024-01-30T13:02:45;9.60;99.90
13409;DHT22;6775;49.574;11.170;2024-01-30T13:05:15;9.70;99.90
13409;DHT22;6775;49.574;11.170;2024-01-30T13:07:44;9.70;99.90
13409;DHT22;6775;49.574;11.170;2024-01-30T13:10:12;10.00;99.90
13409;DHT22;6775;49.574;11.170;2024-01-30T13:12:40;10.00;99.90
13409;DHT22;6775;49.574;11.170;2024-01-30T13:15:09;10.10;99.90
13409;DHT22;6775;49.574;11.170;2024-01-30T13:17:39;10.30;99.90
13409;DHT22;6775;49.574;11.170;2024-01-30T13:20:09;10.50;99.90
13409;DHT22;6775;49.574;11.170;2024-01-30T13:22:39;10.60;99.90
13409;DHT22;6775;49.574;11.170;2024-01-30T13:25:07;10.90;99.90
13409;DHT22;6775;49.574;11.170;2024-01-30T13:27:36;11.20;99.90
13409;DHT22;6775;49.574;11.170;2024-01-30T13:30:07;11.50;99.90
13409;DHT22;6775;49.574;11.170;2024-01-30T13:32:36;11.80;99.90
13409;DHT22;6775;49.574;11.170;2024-01-30T13:35:09;12.00;99.90
13409;DHT22;6775;49.574;11.170;2024-01-30T13:37:38;12.20;99.90
13409;DHT22;6775;49.574;11.170;2024-01-30T13:40:09;12.50;99.90
13409;DHT22;6775;49.574;11.170;2024-01-30T13:42:40;12.70;99.90
13409;DHT22;6775;49.574;11.170;2024-01-30T13:45:08;12.80;99.90
13409;DHT22;6775;49.574;11.170;2024-01-30T13:47:39;12.80;99.90
13409;DHT22;6775;49.574;11.170;2024-01-30T13:50:07;12.70;99.90
13409;DHT22;6775;49.574;11.170;2024-01-30T13:52:41;12.80;99.90
13409;DHT22;6775;49.574;11.170;2024-01-30T13:55:12;12.80;99.90
13409;DHT22;6775;49.574;11.170;2024-01-30T13:57:40;12.80;99.90
13409;DHT22;6775;49.574;11.170;2024-01-30T14:00:10;12.80;99.90
13409;DHT22;6775;49.574;11.170;2024-01-30T14:02:40;12.80;99.90
13409;DHT22;6775;49.574;11.170;2024-01-30T14:05:08;12.80;99.90
13409;DHT22;6775;49.574;11.170;2024-01-30T14:07:37;12.80;99.90
13409;DHT22;6775;49.574;11.170;2024-01-30T14:10:07;12.70;99.90
13409;DHT22;6775;49.574;11.170;2024-01-30T14:12:42;12.50;99.90
13409;DHT22;6775;49.574;11.170;2024-01-30T14:15:11;12.20;99.90
13409;DHT22;6775;49.574;11.170;2024-01-30T14:17:55;11.90;99.90
13409;DHT22;6775;49.574;11.170;2024-01-30T14:20:25;11.70;99.90
13409;DHT22;6775;49.574;11.170;2024-01-30T14:22:54;11.60;99.90
13409;DHT22;6775;49.574;11.170;2024-01-30T14:25:23;11.50;99.90
13409;DHT22;6775;49.574;11.170;2024-01-30T14:27:51;11.50;99.90
13409;DHT22;6775;49.574;11.170;2024-01-30T14:30:20;11.40;99.90
13409;DHT22;6775;49.574;11.170;2024-01-30T14:32:49;11.30;99.90
13409;DHT22;6775;49.574;11.170;2024-01-30T14:35:19;11.10;99.90
13409;DHT22;6775;49.574;11.170;2024-01-30T14:37:47;10.90;99.90
13409;DHT22;6775;49.574;11.170;2024-01-30T14:40:16;10.70;99.90
13409;DHT22;6775;49.574;11.170;2024-01-30T14:42:45;10.50;99.90
13409;DHT22;6775;49.574;11.170;2024-01-30T14:45:13;10.40;99.90
13409;DHT22;6775;49.574;11.170;2024-01-30T14:47:42;10.10;99.90
13409;DHT22;6775;49.574;11.170;2024-01-30T14:50:11;10.00;99.90
13409;DHT22;6775;49.574;11.170;2024-01-30T14:52:40;9.90;99.90
13409;DHT22;6775;49.574;11.170;2024-01-30T14:55:09;9.60;99.90
13409;DHT22;6775;49.574;11.170;2024-01-30T14:57:37;9.50;99.90
13409;DHT22;6775;49.574;11.170;2024-01-30T15:00:06;9.30;99.90
13409;DHT22;6775;49.574;11.170;2024-01-30T15:02:35;9.20;99.90
13409;DHT22;6775;49.574;11.170;2024-01-30T15:05:04;9.10;99.90
13409;DHT22;6775;49.574;11.170;2024-01-30T15:07:32;8.90;99.90
13409;DHT22;6775;49.574;11.170;2024-01-30T15:10:08;8.80;99.90
13409;DHT22;6775;49.574;11.170;2024-01-30T15:12:37;8.70;99.90
13409;DHT22;6775;49.574;11.170;2024-01-30T15:15:07;8.60;99.90
13409;DHT22;6775;49.574;11.170;2024-01-30T15:17:38;8.50;99.90
13409;DHT22;6775;49.574;11.170;2024-01-30T15:20:07;8.40;99.90
13409;DHT22;6775;49.574;11.170;2024-01-30T15:22:36;8.30;99.90
13409;DHT22;6775;49.574;11.170;2024-01-30T15:25:08;8.20;99.90
13409;DHT22;6775;49.574;11.170;2024-01-30T15:27:37;8.20;99.90
13409;DHT22;6775;49.574;11.170;2024-01-30T15:30:07;8.10;99.90
13409;DHT22;6775;49.574;11.170;2024-01-30T15:32:35;8.00;99.90
13409;DHT22;6775;49.574;11.170;2024-01-30T15:35:04;7.90;99.90
13409;DHT22;6775;49.574;11.170;2024-01-30T15:37:33;7.80;99.90
13409;DHT22;6775;49.574;11.170;2024-01-30T15:40:02;7.70;99.90
13409;DHT22;6775;49.574;11.170;2024-01-30T15:42:34;7.60;99.90
13409;DHT22;6775;49.574;11.170;2024-01-30T15:45:03;7.50;99.90
13409;DHT22;6775;49.574;11.170;2024-01-30T15:47:32;7.40;99.90
13409;DHT22;6775;49.574;11.170;2024-01-30T15:50:00;7.40;99.90
13409;DHT22;6775;49.574;11.170;2024-01-30T15:52:28;7.30;99.90
13409;DHT22;6775;49.574;11.170;2024-01-30T15:54:57;7.30;99.90
13409;DHT22;6775;49.574;11.170;2024-01-30T15:57:25;7.20;99.90